sensor_id;sensor_type;location;lat;lon;timestamp;temperature;humidity
78611;SHT30;67932;50.474;4.436;2023-08-17T00:00:46;19.38;81.66
78611;SHT30;67932;50.474;4.436;2023-08-17T00:03:12;19.39;81.39
78611;SHT30;67932;50.474;4.436;2023-08-17T00:05:40;19.42;81.29
78611;SHT30;67932;50.474;4.436;2023-08-17T00:08:06;19.39;81.44
78611;SHT30;67932;50.474;4.436;2023-08-17T00:10:33;19.36;81.43
78611;SHT30;67932;50.474;4.436;2023-08-17T00:12:59;19.32;81.43
78611;SHT30;67932;50.474;4.436;2023-08-17T00:15:26;19.32;81.61
78611;SHT30;67932;50.474;4.436;2023-08-17T00:17:52;19.28;81.73
78611;SHT30;67932;50.474;4.436;2023-08-17T00:20:18;19.32;81.70
78611;SHT30;67932;50.474;4.436;2023-08-17T00:22:45;19.36;81.36
78611;SHT30;67932;50.474;4.436;2023-08-17T00:25:11;19.35;81.22
78611;SHT30;67932;50.474;4.436;2023-08-17T00:27:37;19.42;81.07
78611;SHT30;67932;50.474;4.436;2023-08-17T00:30:04;19.42;80.88
78611;SHT30;67932;50.474;4.436;2023-08-17T00:32:30;19.39;80.99
78611;SHT30;67932;50.474;4.436;2023-08-17T00:34:56;19.38;81.04
78611;SHT30;67932;50.474;4.436;2023-08-17T00:37:23;19.36;80.89
78611;SHT30;67932;50.474;4.436;2023-08-17T00:39:49;19.44;80.79
78611;SHT30;67932;50.474;4.436;2023-08-17T00:42:16;19.45;80.48
78611;SHT30;67932;50.474;4.436;2023-08-17T00:44:42;19.44;80.41
78611;SHT30;67932;50.474;4.436;2023-08-17T00:47:08;19.44;80.46
78611;SHT30;67932;50.474;4.436;2023-08-17T00:49:35;19.47;80.61
78611;SHT30;67932;50.474;4.436;2023-08-17T00:52:01;19.42;81.01
78611;SHT30;67932;50.474;4.436;2023-08-17T00:54:30;19.29;81.58
78611;SHT30;67932;50.474;4.436;2023-08-17T00:56:57;19.27;81.75
78611;SHT30;67932;50.474;4.436;2023-08-17T00:59:24;19.12;82.33
78611;SHT30;67932;50.474;4.436;2023-08-17T01:01:50;19.07;82.76
78611;SHT30;67932;50.474;4.436;2023-08-17T01:04:16;18.94;83.31
78611;SHT30;67932;50.474;4.436;2023-08-17T01:06:43;18.83;83.67
78611;SHT30;67932;50.474;4.436;2023-08-17T01:09:09;18.83;83.76
78611;SHT30;67932;50.474;4.436;2023-08-17T01:11:47;18.81;83.67
78611;SHT30;67932;50.474;4.436;2023-08-17T01:17:25;18.44;84.68
78611;SHT30;67932;50.474;4.436;2023-08-17T01:19:53;18.32;84.84
78611;SHT30;67932;50.474;4.436;2023-08-17T01:22:21;18.25;84.94
78611;SHT30;67932;50.474;4.436;2023-08-17T01:24:54;18.17;85.21
78611;SHT30;67932;50.474;4.436;2023-08-17T01:27:23;18.08;85.49
78611;SHT30;67932;50.474;4.436;2023-08-17T01:29:51;18.02;85.73
78611;SHT30;67932;50.474;4.436;2023-08-17T01:32:44;17.96;85.75
78611;SHT30;67932;50.474;4.436;2023-08-17T01:35:30;17.89;85.91
78611;SHT30;67932;50.474;4.436;2023-08-17T01:38:00;17.85;85.93
78611;SHT30;67932;50.474;4.436;2023-08-17T01:40:32;17.79;86.02
78611;SHT30;67932;50.474;4.436;2023-08-17T01:43:00;17.71;86.25
78611;SHT30;67932;50.474;4.436;2023-08-17T01:45:27;17.69;86.28
78611;SHT30;67932;50.474;4.436;2023-08-17T01:47:54;17.66;86.24
78611;SHT30;67932;50.474;4.436;2023-08-17T01:50:21;17.62;86.22
78611;SHT30;67932;50.474;4.436;2023-08-17T01:52:47;17.59;86.32
78611;SHT30;67932;50.474;4.436;2023-08-17T01:55:13;17.58;86.37
78611;SHT30;67932;50.474;4.436;2023-08-17T01:57:39;17.54;86.36
78611;SHT30;67932;50.474;4.436;2023-08-17T02:00:07;17.48;86.46
78611;SHT30;67932;50.474;4.436;2023-08-17T02:02:36;17.49;86.39
78611;SHT30;67932;50.474;4.436;2023-08-17T02:05:03;17.51;86.30
78611;SHT30;67932;50.474;4.436;2023-08-17T02:07:29;17.44;86.38
78611;SHT30;67932;50.474;4.436;2023-08-17T02:09:55;17.44;86.26
78611;SHT30;67932;50.474;4.436;2023-08-17T02:12:22;17.39;86.33
78611;SHT30;67932;50.474;4.436;2023-08-17T02:14:48;17.39;86.27
78611;SHT30;67932;50.474;4.436;2023-08-17T02:17:14;17.35;86.23
78611;SHT30;67932;50.474;4.436;2023-08-17T02:19:43;17.34;86.26
78611;SHT30;67932;50.474;4.436;2023-08-17T02:22:10;17.30;86.28
78611;SHT30;67932;50.474;4.436;2023-08-17T02:24:36;17.27;86.16
78611;SHT30;67932;50.474;4.436;2023-08-17T02:27:02;17.23;86.25
78611;SHT30;67932;50.474;4.436;2023-08-17T02:29:29;17.23;86.22
78611;SHT30;67932;50.474;4.436;2023-08-17T02:31:55;17.24;86.23
78611;SHT30;67932;50.474;4.436;2023-08-17T02:34:21;17.21;86.21
78611;SHT30;67932;50.474;4.436;2023-08-17T02:36:47;17.20;86.27
78611;SHT30;67932;50.474;4.436;2023-08-17T02:39:14;17.20;86.05
78611;SHT30;67932;50.474;4.436;2023-08-17T02:41:40;17.25;85.98
78611;SHT30;67932;50.474;4.436;2023-08-17T02:44:06;17.23;85.71
78611;SHT30;67932;50.474;4.436;2023-08-17T02:46:33;17.24;85.64
78611;SHT30;67932;50.474;4.436;2023-08-17T02:48:59;17.25;85.39
78611;SHT30;67932;50.474;4.436;2023-08-17T02:51:25;17.25;85.46
78611;SHT30;67932;50.474;4.436;2023-08-17T02:53:51;17.25;85.42
78611;SHT30;67932;50.474;4.436;2023-08-17T02:56:18;17.27;85.23
78611;SHT30;67932;50.474;4.436;2023-08-17T02:58:44;17.24;85.14
78611;SHT30;67932;50.474;4.436;2023-08-17T03:01:10;17.21;85.22
78611;SHT30;67932;50.474;4.436;2023-08-17T03:03:36;17.18;85.27
78611;SHT30;67932;50.474;4.436;2023-08-17T03:06:03;17.13;85.43
78611;SHT30;67932;50.474;4.436;2023-08-17T03:08:29;17.15;85.44
78611;SHT30;67932;50.474;4.436;2023-08-17T03:10:56;17.14;85.31
78611;SHT30;67932;50.474;4.436;2023-08-17T03:13:22;17.18;85.34
78611;SHT30;67932;50.474;4.436;2023-08-17T03:15:48;17.21;84.98
78611;SHT30;67932;50.474;4.436;2023-08-17T03:18:14;17.27;85.06
78611;SHT30;67932;50.474;4.436;2023-08-17T03:20:41;17.20;85.01
78611;SHT30;67932;50.474;4.436;2023-08-17T03:23:07;17.27;84.94
78611;SHT30;67932;50.474;4.436;2023-08-17T03:25:34;17.32;84.86
78611;SHT30;67932;50.474;4.436;2023-08-17T03:28:01;17.32;84.89
78611;SHT30;67932;50.474;4.436;2023-08-17T03:30:27;17.32;84.70
78611;SHT30;67932;50.474;4.436;2023-08-17T03:32:53;17.35;84.60
78611;SHT30;67932;50.474;4.436;2023-08-17T03:35:20;17.36;84.54
78611;SHT30;67932;50.474;4.436;2023-08-17T03:37:46;17.34;84.54
78611;SHT30;67932;50.474;4.436;2023-08-17T03:40:12;17.38;84.52
78611;SHT30;67932;50.474;4.436;2023-08-17T03:42:39;17.36;84.56
78611;SHT30;67932;50.474;4.436;2023-08-17T03:45:05;17.42;84.52
78611;SHT30;67932;50.474;4.436;2023-08-17T03:47:32;17.38;84.56
78611;SHT30;67932;50.474;4.436;2023-08-17T03:49:58;17.41;84.66
78611;SHT30;67932;50.474;4.436;2023-08-17T03:52:24;17.42;84.61
78611;SHT30;67932;50.474;4.436;2023-08-17T03:54:50;17.44;84.67
78611;SHT30;67932;50.474;4.436;2023-08-17T03:57:17;17.44;84.68
78611;SHT30;67932;50.474;4.436;2023-08-17T03:59:43;17.41;84.70
78611;SHT30;67932;50.474;4.436;2023-08-17T04:02:09;17.46;84.68
78611;SHT30;67932;50.474;4.436;2023-08-17T04:04:36;17.48;84.46
78611;SHT30;67932;50.474;4.436;2023-08-17T04:07:02;17.51;84.32
78611;SHT30;67932;50.474;4.436;2023-08-17T04:09:29;17.55;84.22
78611;SHT30;67932;50.474;4.436;2023-08-17T04:11:56;17.59;83.98
78611;SHT30;67932;50.474;4.436;2023-08-17T04:14:23;17.64;83.89
78611;SHT30;67932;50.474;4.436;2023-08-17T04:16:49;17.66;83.71
78611;SHT30;67932;50.474;4.436;2023-08-17T04:19:16;17.69;83.76
78611;SHT30;67932;50.474;4.436;2023-08-17T04:21:42;17.66;83.52
78611;SHT30;67932;50.474;4.436;2023-08-17T04:24:08;17.71;83.52
78611;SHT30;67932;50.474;4.436;2023-08-17T04:26:34;17.71;83.59
78611;SHT30;67932;50.474;4.436;2023-08-17T04:29:01;17.71;83.65
78611;SHT30;67932;50.474;4.436;2023-08-17T04:31:27;17.69;83.73
78611;SHT30;67932;50.474;4.436;2023-08-17T04:33:53;17.66;84.00
78611;SHT30;67932;50.474;4.436;2023-08-17T04:36:20;17.66;84.15
78611;SHT30;67932;50.474;4.436;2023-08-17T04:38:46;17.64;84.19
78611;SHT30;67932;50.474;4.436;2023-08-17T04:41:12;17.65;84.37
78611;SHT30;67932;50.474;4.436;2023-08-17T04:43:39;17.61;84.60
78611;SHT30;67932;50.474;4.436;2023-08-17T04:46:05;17.64;84.81
78611;SHT30;67932;50.474;4.436;2023-08-17T04:48:31;17.61;84.84
78611;SHT30;67932;50.474;4.436;2023-08-17T04:50:57;17.65;84.87
78611;SHT30;67932;50.474;4.436;2023-08-17T04:53:24;17.71;84.71
78611;SHT30;67932;50.474;4.436;2023-08-17T04:55:50;17.68;84.97
78611;SHT30;67932;50.474;4.436;2023-08-17T04:58:16;17.61;85.22
78611;SHT30;67932;50.474;4.436;2023-08-17T05:00:42;17.59;85.40
78611;SHT30;67932;50.474;4.436;2023-08-17T05:03:09;17.58;85.60
78611;SHT30;67932;50.474;4.436;2023-08-17T05:05:35;17.62;85.57
78611;SHT30;67932;50.474;4.436;2023-08-17T05:08:02;17.61;85.64
78611;SHT30;67932;50.474;4.436;2023-08-17T05:10:28;17.65;85.51
78611;SHT30;67932;50.474;4.436;2023-08-17T05:12:54;17.65;85.51
78611;SHT30;67932;50.474;4.436;2023-08-17T05:15:21;17.69;85.48
78611;SHT30;67932;50.474;4.436;2023-08-17T05:17:47;17.64;85.48
78611;SHT30;67932;50.474;4.436;2023-08-17T05:20:13;17.59;85.68
78611;SHT30;67932;50.474;4.436;2023-08-17T05:22:40;17.56;85.71
78611;SHT30;67932;50.474;4.436;2023-08-17T05:25:07;17.55;85.83
78611;SHT30;67932;50.474;4.436;2023-08-17T05:27:33;17.49;85.98
78611;SHT30;67932;50.474;4.436;2023-08-17T05:29:59;17.54;86.02
78611;SHT30;67932;50.474;4.436;2023-08-17T05:32:26;17.61;85.89
78611;SHT30;67932;50.474;4.436;2023-08-17T05:34:52;17.62;85.67
78611;SHT30;67932;50.474;4.436;2023-08-17T05:37:19;17.64;85.54
78611;SHT30;67932;50.474;4.436;2023-08-17T05:39:45;17.68;85.44
78611;SHT30;67932;50.474;4.436;2023-08-17T05:42:12;17.76;85.22
78611;SHT30;67932;50.474;4.436;2023-08-17T05:44:38;17.75;85.08
78611;SHT30;67932;50.474;4.436;2023-08-17T05:47:04;17.75;84.91
78611;SHT30;67932;50.474;4.436;2023-08-17T05:49:30;17.81;84.88
78611;SHT30;67932;50.474;4.436;2023-08-17T05:51:57;17.85;84.85
78611;SHT30;67932;50.474;4.436;2023-08-17T05:54:23;17.86;84.66
78611;SHT30;67932;50.474;4.436;2023-08-17T05:56:49;17.83;84.55
78611;SHT30;67932;50.474;4.436;2023-08-17T05:59:16;17.92;84.41
78611;SHT30;67932;50.474;4.436;2023-08-17T06:01:42;17.88;84.54
78611;SHT30;67932;50.474;4.436;2023-08-17T06:04:08;17.98;84.38
78611;SHT30;67932;50.474;4.436;2023-08-17T06:06:34;18.00;84.03
78611;SHT30;67932;50.474;4.436;2023-08-17T06:09:01;17.99;84.42
78611;SHT30;67932;50.474;4.436;2023-08-17T06:11:27;18.13;83.95
78611;SHT30;67932;50.474;4.436;2023-08-17T06:13:53;18.14;83.73
78611;SHT30;67932;50.474;4.436;2023-08-17T06:16:19;18.12;83.87
78611;SHT30;67932;50.474;4.436;2023-08-17T06:18:46;18.12;84.34
78611;SHT30;67932;50.474;4.436;2023-08-17T06:21:12;18.12;83.96
78611;SHT30;67932;50.474;4.436;2023-08-17T06:23:38;18.17;83.95
78611;SHT30;67932;50.474;4.436;2023-08-17T06:26:04;18.13;83.70
78611;SHT30;67932;50.474;4.436;2023-08-17T06:28:34;18.13;84.07
78611;SHT30;67932;50.474;4.436;2023-08-17T06:31:00;18.16;83.50
78611;SHT30;67932;50.474;4.436;2023-08-17T06:33:26;18.14;83.77
78611;SHT30;67932;50.474;4.436;2023-08-17T06:35:52;18.10;84.82
78611;SHT30;67932;50.474;4.436;2023-08-17T06:38:18;18.14;84.87
78611;SHT30;67932;50.474;4.436;2023-08-17T06:40:46;18.09;84.03
78611;SHT30;67932;50.474;4.436;2023-08-17T06:43:12;18.06;83.98
78611;SHT30;67932;50.474;4.436;2023-08-17T06:45:38;18.12;84.14
78611;SHT30;67932;50.474;4.436;2023-08-17T06:48:05;18.13;83.90
78611;SHT30;67932;50.474;4.436;2023-08-17T06:50:31;18.28;83.61
78611;SHT30;67932;50.474;4.436;2023-08-17T06:52:57;18.29;83.50
78611;SHT30;67932;50.474;4.436;2023-08-17T06:55:24;18.30;84.06
78611;SHT30;67932;50.474;4.436;2023-08-17T06:57:50;18.33;83.77
78611;SHT30;67932;50.474;4.436;2023-08-17T07:00:18;18.33;83.78
78611;SHT30;67932;50.474;4.436;2023-08-17T07:02:50;18.32;83.72
78611;SHT30;67932;50.474;4.436;2023-08-17T07:05:17;18.37;83.67
78611;SHT30;67932;50.474;4.436;2023-08-17T07:07:44;18.34;83.93
78611;SHT30;67932;50.474;4.436;2023-08-17T07:10:11;18.36;83.38
78611;SHT30;67932;50.474;4.436;2023-08-17T07:12:38;18.47;83.39
78611;SHT30;67932;50.474;4.436;2023-08-17T07:15:05;18.50;83.66
78611;SHT30;67932;50.474;4.436;2023-08-17T07:17:32;18.54;83.20
78611;SHT30;67932;50.474;4.436;2023-08-17T07:20:00;18.52;83.32
78611;SHT30;67932;50.474;4.436;2023-08-17T07:22:26;18.47;83.47
78611;SHT30;67932;50.474;4.436;2023-08-17T07:24:53;18.56;83.20
78611;SHT30;67932;50.474;4.436;2023-08-17T07:27:19;18.70;82.72
78611;SHT30;67932;50.474;4.436;2023-08-17T07:29:45;18.68;83.07
78611;SHT30;67932;50.474;4.436;2023-08-17T07:32:11;18.74;83.16
78611;SHT30;67932;50.474;4.436;2023-08-17T07:34:37;18.63;82.89
78611;SHT30;67932;50.474;4.436;2023-08-17T07:37:05;18.73;82.43
78611;SHT30;67932;50.474;4.436;2023-08-17T07:39:32;18.73;82.90
78611;SHT30;67932;50.474;4.436;2023-08-17T07:41:58;18.74;82.65
78611;SHT30;67932;50.474;4.436;2023-08-17T07:44:25;18.65;83.14
78611;SHT30;67932;50.474;4.436;2023-08-17T07:46:51;18.65;83.34
78611;SHT30;67932;50.474;4.436;2023-08-17T07:49:17;18.67;83.61
78611;SHT30;67932;50.474;4.436;2023-08-17T07:51:43;18.67;83.61
78611;SHT30;67932;50.474;4.436;2023-08-17T07:54:10;18.70;83.89
78611;SHT30;67932;50.474;4.436;2023-08-17T07:56:36;18.77;83.76
78611;SHT30;67932;50.474;4.436;2023-08-17T07:59:02;18.91;83.02
78611;SHT30;67932;50.474;4.436;2023-08-17T08:01:28;18.84;83.38
78611;SHT30;67932;50.474;4.436;2023-08-17T08:03:55;18.94;83.20
78611;SHT30;67932;50.474;4.436;2023-08-17T08:06:21;19.00;83.23
78611;SHT30;67932;50.474;4.436;2023-08-17T08:08:47;19.08;82.73
78611;SHT30;67932;50.474;4.436;2023-08-17T08:11:14;19.28;82.37
78611;SHT30;67932;50.474;4.436;2023-08-17T08:13:41;19.47;81.93
78611;SHT30;67932;50.474;4.436;2023-08-17T08:16:07;19.57;81.19
78611;SHT30;67932;50.474;4.436;2023-08-17T08:18:34;19.55;80.90
78611;SHT30;67932;50.474;4.436;2023-08-17T08:21:00;19.66;81.08
78611;SHT30;67932;50.474;4.436;2023-08-17T08:23:26;19.69;80.40
78611;SHT30;67932;50.474;4.436;2023-08-17T08:25:53;19.80;80.00
78611;SHT30;67932;50.474;4.436;2023-08-17T08:28:19;19.76;80.41
78611;SHT30;67932;50.474;4.436;2023-08-17T08:30:45;19.83;79.69
78611;SHT30;67932;50.474;4.436;2023-08-17T08:33:12;19.94;79.25
78611;SHT30;67932;50.474;4.436;2023-08-17T08:35:39;19.87;79.19
78611;SHT30;67932;50.474;4.436;2023-08-17T08:38:05;19.89;79.68
78611;SHT30;67932;50.474;4.436;2023-08-17T08:40:31;19.85;79.74
78611;SHT30;67932;50.474;4.436;2023-08-17T08:42:58;19.90;79.93
78611;SHT30;67932;50.474;4.436;2023-08-17T08:45:25;19.76;80.33
78611;SHT30;67932;50.474;4.436;2023-08-17T08:47:53;19.80;80.40
78611;SHT30;67932;50.474;4.436;2023-08-17T08:50:20;19.79;80.76
78611;SHT30;67932;50.474;4.436;2023-08-17T08:52:58;19.86;80.29
78611;SHT30;67932;50.474;4.436;2023-08-17T08:55:28;19.79;80.24
78611;SHT30;67932;50.474;4.436;2023-08-17T08:57:55;19.87;80.36
78611;SHT30;67932;50.474;4.436;2023-08-17T09:00:22;20.08;79.83
78611;SHT30;67932;50.474;4.436;2023-08-17T09:02:51;20.08;79.85
78611;SHT30;67932;50.474;4.436;2023-08-17T09:05:18;20.10;79.90
78611;SHT30;67932;50.474;4.436;2023-08-17T09:07:45;20.05;80.41
78611;SHT30;67932;50.474;4.436;2023-08-17T09:10:13;20.05;80.19
78611;SHT30;67932;50.474;4.436;2023-08-17T09:12:43;19.87;80.75
78611;SHT30;67932;50.474;4.436;2023-08-17T09:15:10;19.89;80.25
78611;SHT30;67932;50.474;4.436;2023-08-17T09:17:36;19.99;80.11
78611;SHT30;67932;50.474;4.436;2023-08-17T09:20:03;20.03;79.63
78611;SHT30;67932;50.474;4.436;2023-08-17T09:22:40;20.09;79.72
78611;SHT30;67932;50.474;4.436;2023-08-17T09:25:08;20.05;79.88
78611;SHT30;67932;50.474;4.436;2023-08-17T09:27:35;20.03;79.88
78611;SHT30;67932;50.474;4.436;2023-08-17T09:30:11;20.08;79.61
78611;SHT30;67932;50.474;4.436;2023-08-17T09:32:38;20.12;80.06
78611;SHT30;67932;50.474;4.436;2023-08-17T09:35:05;20.19;79.37
78611;SHT30;67932;50.474;4.436;2023-08-17T09:37:32;20.29;79.18
78611;SHT30;67932;50.474;4.436;2023-08-17T09:39:59;20.29;79.19
78611;SHT30;67932;50.474;4.436;2023-08-17T09:42:25;20.40;78.19
78611;SHT30;67932;50.474;4.436;2023-08-17T09:44:53;20.47;78.33
78611;SHT30;67932;50.474;4.436;2023-08-17T09:47:20;20.74;77.64
78611;SHT30;67932;50.474;4.436;2023-08-17T09:49:52;20.76;77.36
78611;SHT30;67932;50.474;4.436;2023-08-17T09:52:19;20.67;77.91
78611;SHT30;67932;50.474;4.436;2023-08-17T09:54:46;20.80;78.12
78611;SHT30;67932;50.474;4.436;2023-08-17T09:57:13;21.07;77.09
78611;SHT30;67932;50.474;4.436;2023-08-17T09:59:40;20.92;76.28
78611;SHT30;67932;50.474;4.436;2023-08-17T10:02:22;20.92;76.57
78611;SHT30;67932;50.474;4.436;2023-08-17T10:04:53;20.99;76.77
78611;SHT30;67932;50.474;4.436;2023-08-17T10:07:26;21.04;76.80
78611;SHT30;67932;50.474;4.436;2023-08-17T10:10:03;21.02;76.89
78611;SHT30;67932;50.474;4.436;2023-08-17T10:12:44;21.02;76.66
78611;SHT30;67932;50.474;4.436;2023-08-17T10:15:15;21.02;76.64
78611;SHT30;67932;50.474;4.436;2023-08-17T10:17:55;20.99;76.76
78611;SHT30;67932;50.474;4.436;2023-08-17T10:20:24;20.83;77.47
78611;SHT30;67932;50.474;4.436;2023-08-17T10:23:14;20.80;77.30
78611;SHT30;67932;50.474;4.436;2023-08-17T10:25:44;20.71;77.86
78611;SHT30;67932;50.474;4.436;2023-08-17T10:28:14;20.90;77.20
78611;SHT30;67932;50.474;4.436;2023-08-17T10:30:41;20.84;77.67
78611;SHT30;67932;50.474;4.436;2023-08-17T10:33:09;20.88;77.12
78611;SHT30;67932;50.474;4.436;2023-08-17T10:35:36;20.83;77.64
78611;SHT30;67932;50.474;4.436;2023-08-17T10:38:06;20.68;78.06
78611;SHT30;67932;50.474;4.436;2023-08-17T10:40:36;20.74;77.85
78611;SHT30;67932;50.474;4.436;2023-08-17T10:43:03;20.87;77.48
78611;SHT30;67932;50.474;4.436;2023-08-17T10:45:31;20.91;77.53
78611;SHT30;67932;50.474;4.436;2023-08-17T10:48:24;20.95;77.32
78611;SHT30;67932;50.474;4.436;2023-08-17T10:51:02;20.87;77.33
78611;SHT30;67932;50.474;4.436;2023-08-17T10:53:34;20.90;77.20
78611;SHT30;67932;50.474;4.436;2023-08-17T10:56:01;21.05;76.88
78611;SHT30;67932;50.474;4.436;2023-08-17T10:58:32;20.97;76.95
78611;SHT30;67932;50.474;4.436;2023-08-17T11:01:00;20.98;77.14
78611;SHT30;67932;50.474;4.436;2023-08-17T11:03:26;21.11;77.03
78611;SHT30;67932;50.474;4.436;2023-08-17T11:05:54;21.15;76.99
78611;SHT30;67932;50.474;4.436;2023-08-17T11:08:33;21.18;77.05
78611;SHT30;67932;50.474;4.436;2023-08-17T11:11:10;21.37;76.62
78611;SHT30;67932;50.474;4.436;2023-08-17T11:13:44;21.29;76.72
78611;SHT30;67932;50.474;4.436;2023-08-17T11:16:13;21.41;76.22
78611;SHT30;67932;50.474;4.436;2023-08-17T11:18:39;21.55;75.95
78611;SHT30;67932;50.474;4.436;2023-08-17T11:21:07;21.53;76.00
78611;SHT30;67932;50.474;4.436;2023-08-17T11:23:36;21.52;76.57
78611;SHT30;67932;50.474;4.436;2023-08-17T11:26:02;21.55;76.41
78611;SHT30;67932;50.474;4.436;2023-08-17T11:28:33;21.52;75.79
78611;SHT30;67932;50.474;4.436;2023-08-17T11:31:07;21.34;76.41
78611;SHT30;67932;50.474;4.436;2023-08-17T11:33:35;21.29;76.92
78611;SHT30;67932;50.474;4.436;2023-08-17T11:36:04;21.22;76.91
78611;SHT30;67932;50.474;4.436;2023-08-17T11:38:33;21.25;77.46
78611;SHT30;67932;50.474;4.436;2023-08-17T11:41:00;21.34;76.59
78611;SHT30;67932;50.474;4.436;2023-08-17T11:43:31;21.25;77.18
78611;SHT30;67932;50.474;4.436;2023-08-17T11:45:59;21.25;77.12
78611;SHT30;67932;50.474;4.436;2023-08-17T11:48:25;21.37;76.59
78611;SHT30;67932;50.474;4.436;2023-08-17T11:50:52;21.51;76.39
78611;SHT30;67932;50.474;4.436;2023-08-17T11:53:19;21.55;76.36
78611;SHT30;67932;50.474;4.436;2023-08-17T11:55:45;21.62;75.73
78611;SHT30;67932;50.474;4.436;2023-08-17T11:58:11;21.67;76.12
78611;SHT30;67932;50.474;4.436;2023-08-17T12:00:41;21.65;75.95
78611;SHT30;67932;50.474;4.436;2023-08-17T12:03:13;21.53;76.15
78611;SHT30;67932;50.474;4.436;2023-08-17T12:05:41;21.45;76.71
78611;SHT30;67932;50.474;4.436;2023-08-17T12:08:08;21.34;76.69
78611;SHT30;67932;50.474;4.436;2023-08-17T12:10:36;21.35;76.83
78611;SHT30;67932;50.474;4.436;2023-08-17T12:13:02;21.14;77.55
78611;SHT30;67932;50.474;4.436;2023-08-17T12:15:33;21.17;77.39
78611;SHT30;67932;50.474;4.436;2023-08-17T12:18:01;21.17;77.38
78611;SHT30;67932;50.474;4.436;2023-08-17T12:20:27;21.17;77.35
78611;SHT30;67932;50.474;4.436;2023-08-17T12:22:54;21.07;78.36
78611;SHT30;67932;50.474;4.436;2023-08-17T12:25:24;21.09;78.17
78611;SHT30;67932;50.474;4.436;2023-08-17T12:27:50;21.09;77.94
78611;SHT30;67932;50.474;4.436;2023-08-17T12:30:28;21.08;77.86
78611;SHT30;67932;50.474;4.436;2023-08-17T12:33:01;21.14;77.76
78611;SHT30;67932;50.474;4.436;2023-08-17T12:35:27;21.24;77.33
78611;SHT30;67932;50.474;4.436;2023-08-17T12:37:54;21.38;77.25
78611;SHT30;67932;50.474;4.436;2023-08-17T12:40:21;21.46;76.54
78611;SHT30;67932;50.474;4.436;2023-08-17T12:42:48;21.38;76.85
78611;SHT30;67932;50.474;4.436;2023-08-17T12:45:15;21.41;77.37
78611;SHT30;67932;50.474;4.436;2023-08-17T12:47:42;21.48;76.99
78611;SHT30;67932;50.474;4.436;2023-08-17T12:50:08;21.42;76.94
78611;SHT30;67932;50.474;4.436;2023-08-17T12:52:35;21.45;76.45
78611;SHT30;67932;50.474;4.436;2023-08-17T12:55:01;21.49;76.59
78611;SHT30;67932;50.474;4.436;2023-08-17T12:57:27;21.46;76.56
78611;SHT30;67932;50.474;4.436;2023-08-17T12:59:54;21.41;76.84
78611;SHT30;67932;50.474;4.436;2023-08-17T13:02:21;21.39;76.73
78611;SHT30;67932;50.474;4.436;2023-08-17T13:04:47;21.41;77.11
78611;SHT30;67932;50.474;4.436;2023-08-17T13:07:13;21.46;76.91
78611;SHT30;67932;50.474;4.436;2023-08-17T13:09:40;21.42;76.85
78611;SHT30;67932;50.474;4.436;2023-08-17T13:12:06;21.38;77.45
78611;SHT30;67932;50.474;4.436;2023-08-17T13:14:34;21.43;76.64
78611;SHT30;67932;50.474;4.436;2023-08-17T13:17:00;21.34;76.89
78611;SHT30;67932;50.474;4.436;2023-08-17T13:19:27;21.35;77.20
78611;SHT30;67932;50.474;4.436;2023-08-17T13:21:53;21.35;77.04
78611;SHT30;67932;50.474;4.436;2023-08-17T13:24:19;21.21;77.88
78611;SHT30;67932;50.474;4.436;2023-08-17T13:26:46;21.25;77.44
78611;SHT30;67932;50.474;4.436;2023-08-17T13:29:12;21.21;77.68
78611;SHT30;67932;50.474;4.436;2023-08-17T13:31:38;21.22;78.20
78611;SHT30;67932;50.474;4.436;2023-08-17T13:34:04;21.34;77.48
78611;SHT30;67932;50.474;4.436;2023-08-17T13:36:31;21.29;77.58
78611;SHT30;67932;50.474;4.436;2023-08-17T13:38:57;21.37;77.65
78611;SHT30;67932;50.474;4.436;2023-08-17T13:41:24;21.41;77.20
78611;SHT30;67932;50.474;4.436;2023-08-17T13:43:51;21.51;76.93
78611;SHT30;67932;50.474;4.436;2023-08-17T13:46:17;21.62;76.49
78611;SHT30;67932;50.474;4.436;2023-08-17T13:48:43;21.72;76.65
78611;SHT30;67932;50.474;4.436;2023-08-17T13:51:09;21.82;76.01
78611;SHT30;67932;50.474;4.436;2023-08-17T13:53:37;22.20;74.89
78611;SHT30;67932;50.474;4.436;2023-08-17T13:56:03;22.36;74.45
78611;SHT30;67932;50.474;4.436;2023-08-17T13:58:30;22.56;74.16
78611;SHT30;67932;50.474;4.436;2023-08-17T14:00:56;22.78;73.80
78611;SHT30;67932;50.474;4.436;2023-08-17T14:03:23;23.32;72.15
78611;SHT30;67932;50.474;4.436;2023-08-17T14:05:49;24.88;67.66
78611;SHT30;67932;50.474;4.436;2023-08-17T14:08:16;26.07;64.01
78611;SHT30;67932;50.474;4.436;2023-08-17T14:10:42;25.70;63.60
78611;SHT30;67932;50.474;4.436;2023-08-17T14:13:08;25.28;66.14
78611;SHT30;67932;50.474;4.436;2023-08-17T14:15:34;24.68;66.40
78611;SHT30;67932;50.474;4.436;2023-08-17T14:18:01;24.50;67.23
78611;SHT30;67932;50.474;4.436;2023-08-17T14:20:27;24.96;65.84
78611;SHT30;67932;50.474;4.436;2023-08-17T14:22:53;26.19;62.19
78611;SHT30;67932;50.474;4.436;2023-08-17T14:25:19;26.75;60.64
78611;SHT30;67932;50.474;4.436;2023-08-17T14:27:46;26.54;61.28
78611;SHT30;67932;50.474;4.436;2023-08-17T14:30:12;25.79;63.89
78611;SHT30;67932;50.474;4.436;2023-08-17T14:32:38;25.53;63.49
78611;SHT30;67932;50.474;4.436;2023-08-17T14:35:05;26.91;59.88
78611;SHT30;67932;50.474;4.436;2023-08-17T14:37:31;26.87;59.72
78611;SHT30;67932;50.474;4.436;2023-08-17T14:39:57;25.65;63.27
78611;SHT30;67932;50.474;4.436;2023-08-17T14:42:24;24.75;65.92
78611;SHT30;67932;50.474;4.436;2023-08-17T14:44:51;24.36;66.99
78611;SHT30;67932;50.474;4.436;2023-08-17T14:47:18;24.10;68.21
78611;SHT30;67932;50.474;4.436;2023-08-17T14:49:44;25.07;66.05
78611;SHT30;67932;50.474;4.436;2023-08-17T14:52:10;24.75;66.83
78611;SHT30;67932;50.474;4.436;2023-08-17T14:54:36;24.46;67.47
78611;SHT30;67932;50.474;4.436;2023-08-17T14:57:02;24.09;68.18
78611;SHT30;67932;50.474;4.436;2023-08-17T14:59:29;23.55;69.94
78611;SHT30;67932;50.474;4.436;2023-08-17T15:01:55;23.38;70.76
78611;SHT30;67932;50.474;4.436;2023-08-17T15:04:22;23.46;70.75
78611;SHT30;67932;50.474;4.436;2023-08-17T15:06:49;23.45;70.82
78611;SHT30;67932;50.474;4.436;2023-08-17T15:09:15;23.32;71.02
78611;SHT30;67932;50.474;4.436;2023-08-17T15:11:41;23.53;70.94
78611;SHT30;67932;50.474;4.436;2023-08-17T15:14:07;23.87;69.35
78611;SHT30;67932;50.474;4.436;2023-08-17T15:16:34;23.99;69.43
78611;SHT30;67932;50.474;4.436;2023-08-17T15:19:00;24.02;68.86
78611;SHT30;67932;50.474;4.436;2023-08-17T15:21:26;25.08;65.87
78611;SHT30;67932;50.474;4.436;2023-08-17T15:23:54;25.15;65.98
78611;SHT30;67932;50.474;4.436;2023-08-17T15:26:20;26.14;62.40
78611;SHT30;67932;50.474;4.436;2023-08-17T15:28:46;26.80;60.92
78611;SHT30;67932;50.474;4.436;2023-08-17T15:31:13;27.02;60.32
78611;SHT30;67932;50.474;4.436;2023-08-17T15:33:42;26.55;60.89